| time (UTC) | temp F | wind direction | speed MPH | gust MPH | rain 1hr in | rain 24hr in | rain mn in | humidity % | barometer mb |
| 20260505124538 | 34 | 62 | 9.0 | 17.0 | 0.03 | 0.14 | 0.04 | 93 | 1012.9 |
| 20260505124015 | 34 | 97 | 12.0 | 17.0 | 0.03 | 0.14 | 0.04 | 92 | 1012.7 |
| 20260505123518 | 35 | 69 | 13.0 | 17.0 | 0.03 | 0.14 | 0.04 | 92 | 1012.6 |
| 20260505123033 | 35 | 57 | 10.0 | 16.0 | 0.02 | 0.13 | 0.03 | 93 | 1012.4 |
| 20260505122516 | 36 | 360 | 11.0 | 16.0 | 0.02 | 0.13 | 0.03 | 93 | 1012.7 |
| 20260505122017 | 36 | 360 | 12.0 | 16.0 | 0.02 | 0.13 | 0.03 | 93 | 1012.5 |
| 20260505121533 | 36 | 360 | 11.0 | 15.0 | 0.02 | 0.13 | 0.03 | 92 | 1012.6 |
| 20260505121019 | 37 | 88 | 9.0 | 13.0 | 0.02 | 0.13 | 0.03 | 93 | 1012.4 |
| 20260505120514 | 37 | 94 | 8.0 | 13.0 | 0.01 | 0.12 | 0.02 | 93 | 1012.5 |
| 20260505120155 | 38 | 98 | 10.0 | 13.0 | 0.01 | 0.12 | 0.02 | 92 | 1012.3 |
| 20260505020030 | 50 | 360 | 3.0 | 8.0 | 0.00 | 0.00 | 0.00 | 61 | 1011.3 |
| 20260505015514 | 50 | 360 | 4.0 | 14.0 | 0.00 | 0.00 | 0.00 | 62 | 1011.3 |
| 20260505015014 | 50 | 360 | 7.0 | 16.0 | 0.00 | 0.00 | 0.00 | 62 | 1011.2 |
| 20260505014532 | 51 | 360 | 11.0 | 17.0 | 0.00 | 0.00 | 0.00 | 61 | 1010.9 |
| 20260505014019 | 52 | 360 | 9.0 | 17.0 | 0.00 | 0.00 | 0.00 | 60 | 1010.9 |
| 20260505013515 | 53 | 360 | 11.0 | 17.0 | 0.00 | 0.00 | 0.00 | 56 | 1010.7 |
| 20260505013032 | 54 | 360 | 11.0 | 16.0 | 0.00 | 0.00 | 0.00 | 54 | 1011.0 |
| 20260505012514 | 55 | 360 | 11.0 | 18.0 | 0.00 | 0.00 | 0.00 | 52 | 1011.1 |
| 20260505012014 | 55 | 360 | 10.0 | 18.0 | 0.00 | 0.00 | 0.00 | 48 | 1011.0 |
| 20260505011533 | 55 | 360 | 13.0 | 18.0 | 0.00 | 0.00 | 0.00 | 47 | 1011.0 |
| 20260505011014 | 56 | 360 | 8.0 | 15.0 | 0.00 | 0.00 | 0.00 | 46 | 1010.6 |
| 20260505010517 | 56 | 360 | 7.0 | 15.0 | 0.00 | 0.00 | 0.00 | 46 | 1010.7 |
| 20260505010029 | 56 | 360 | 9.0 | 15.0 | 0.00 | 0.00 | 0.00 | 46 | 1010.6 |
| 20260505005517 | 56 | 360 | 9.0 | 15.0 | 0.00 | 0.00 | 0.00 | 45 | 1010.6 |
| 20260505005014 | 56 | 360 | 9.0 | 20.0 | 0.00 | 0.00 | 0.00 | 44 | 1010.5 |
| 20260505004531 | 57 | 360 | 11.0 | 20.0 | 0.00 | 0.00 | 0.00 | 44 | 1010.4 |
| 20260505004013 | 57 | 360 | 11.0 | 16.0 | 0.00 | 0.00 | 0.00 | 43 | 1010.3 |
| 20260505003518 | 58 | 360 | 11.0 | 16.0 | 0.00 | 0.00 | 0.00 | 41 | 1010.2 |
| 20260505003032 | 58 | 360 | 10.0 | 18.0 | 0.00 | 0.00 | 0.00 | 40 | 1010.3 |
| 20260505002515 | 59 | 360 | 11.0 | 18.0 | 0.00 | 0.00 | 0.00 | 39 | 1010.1 |
| 20260505002014 | 59 | 360 | 11.0 | 18.0 | 0.00 | 0.00 | 0.00 | 38 | 1010.0 |
| 20260505001530 | 59 | 360 | 10.0 | 17.0 | 0.00 | 0.00 | 0.00 | 37 | 1009.9 |
| 20260505001014 | 59 | 360 | 10.0 | 17.0 | 0.00 | 0.00 | 0.00 | 36 | 1009.9 |
| 20260505000514 | 59 | 360 | 8.0 | 17.0 | 0.00 | 0.00 | 0.00 | 36 | 1009.9 |
| 20260505000036 | 60 | 360 | 8.0 | 17.0 | 0.00 | 0.00 | 0.00 | 35 | 1009.9 |
| 20260504235514 | 60 | 360 | 11.0 | 17.0 | 0.00 | 0.00 | 0.00 | 35 | 1009.9 |
| 20260504235015 | 60 | 360 | 10.0 | 16.0 | 0.00 | 0.00 | 0.00 | 34 | 1009.9 |
| 20260504234534 | 60 | 360 | 10.0 | 16.0 | 0.00 | 0.00 | 0.00 | 34 | 1009.7 |
| 20260504234014 | 60 | 360 | 10.0 | 16.0 | 0.00 | 0.00 | 0.00 | 34 | 1009.9 |
| 20260504233514 | 60 | 360 | 10.0 | 16.0 | 0.00 | 0.00 | 0.00 | 34 | 1009.7 |
| 20260504233030 | 60 | 360 | 9.0 | 15.0 | 0.00 | 0.00 | 0.00 | 34 | 1009.7 |
| 20260504232515 | 60 | 360 | 8.0 | 17.0 | 0.00 | 0.00 | 0.00 | 34 | 1009.7 |
| 20260504232013 | 61 | 352 | 12.0 | 19.0 | 0.00 | 0.00 | 0.00 | 34 | 1009.7 |
| 20260504231536 | 61 | 34 | 10.0 | 24.0 | 0.00 | 0.00 | 0.00 | 34 | 1009.6 |
| 20260504231014 | 61 | 30 | 14.0 | 24.0 | 0.00 | 0.00 | 0.00 | 34 | 1009.4 |
| 20260504230513 | 61 | 42 | 13.0 | 24.0 | 0.00 | 0.00 | 0.00 | 34 | 1009.2 |
| 20260504230034 | 61 | 343 | 16.0 | 23.0 | 0.00 | 0.00 | 0.00 | 34 | 1009.2 |
| 20260504225518 | 61 | 35 | 14.0 | 23.0 | 0.00 | 0.00 | 0.00 | 34 | 1009.1 |
| 20260504225013 | 61 | 10 | 13.0 | 24.0 | 0.00 | 0.00 | 0.00 | 34 | 1009.3 |
| 20260504224529 | 61 | 360 | 16.0 | 24.0 | 0.00 | 0.00 | 0.00 | 33 | 1009.2 |
| 20260504224013 | 62 | 17 | 17.0 | 24.0 | 0.00 | 0.00 | 0.00 | 32 | 1009.3 |
| 20260504223514 | 62 | 360 | 13.0 | 22.0 | 0.00 | 0.00 | 0.00 | 32 | 1009.2 |
| 20260504223029 | 63 | 12 | 14.0 | 21.0 | 0.00 | 0.00 | 0.00 | 30 | 1009.1 |
| 20260504222513 | 63 | 26 | 12.0 | 22.0 | 0.00 | 0.00 | 0.00 | 30 | 1009.2 |
| 20260504222015 | 64 | 34 | 13.0 | 22.0 | 0.00 | 0.00 | 0.00 | 29 | 1008.9 |
| 20260504221530 | 65 | 24 | 12.0 | 18.0 | 0.00 | 0.00 | 0.00 | 26 | 1009.1 |
| 20260504221014 | 65 | 350 | 11.0 | 17.0 | 0.00 | 0.00 | 0.00 | 24 | 1008.8 |
| 20260504220518 | 65 | 12 | 10.0 | 17.0 | 0.00 | 0.00 | 0.00 | 25 | 1008.6 |
| 20260504220030 | 65 | 32 | 10.0 | 17.0 | 0.00 | 0.00 | 0.00 | 24 | 1008.6 |
| 20260504215514 | 66 | 13 | 11.0 | 17.0 | 0.00 | 0.00 | 0.00 | 24 | 1008.6 |
| 20260504215013 | 66 | 340 | 12.0 | 17.0 | 0.00 | 0.00 | 0.00 | 23 | 1008.5 |
| 20260504214530 | 67 | 349 | 10.0 | 17.0 | 0.00 | 0.00 | 0.00 | 23 | 1008.7 |
| 20260504214013 | 67 | 352 | 10.0 | 18.0 | 0.00 | 0.00 | 0.00 | 23 | 1008.6 |
| 20260504213513 | 66 | 5 | 11.0 | 20.0 | 0.00 | 0.00 | 0.00 | 24 | 1008.7 |
| 20260504213030 | 67 | 360 | 13.0 | 20.0 | 0.00 | 0.00 | 0.00 | 23 | 1008.9 |
| 20260504212511 | 68 | 352 | 12.0 | 18.0 | 0.00 | 0.00 | 0.00 | 23 | 1008.8 |
| 20260504212015 | 68 | 360 | 12.0 | 16.0 | 0.00 | 0.00 | 0.00 | 21 | 1008.8 |
| 20260504211530 | 69 | 350 | 8.0 | 18.0 | 0.00 | 0.00 | 0.00 | 22 | 1008.7 |
| 20260504211014 | 69 | 55 | 10.0 | 21.0 | 0.00 | 0.00 | 0.00 | 22 | 1008.9 |
| 20260504210514 | 69 | 352 | 10.0 | 21.0 | 0.00 | 0.00 | 0.00 | 23 | 1008.9 |
| 20260504210034 | 70 | 321 | 9.0 | 21.0 | 0.00 | 0.00 | 0.00 | 23 | 1008.9 |
| 20260504205514 | 69 | 360 | 10.0 | 17.0 | 0.00 | 0.00 | 0.00 | 21 | 1008.9 |
| 20260504205013 | 69 | 351 | 11.0 | 17.0 | 0.00 | 0.00 | 0.00 | 22 | 1009.0 |
| 20260504204533 | 69 | 325 | 8.0 | 17.0 | 0.00 | 0.00 | 0.00 | 21 | 1009.1 |
| 20260504204016 | 69 | 319 | 3.0 | 15.0 | 0.00 | 0.00 | 0.00 | 22 | 1009.1 |
| 20260504203514 | 69 | 319 | 6.0 | 13.0 | 0.00 | 0.00 | 0.00 | 22 | 1009.1 |
| 20260504203050 | 69 | 339 | 6.0 | 15.0 | 0.00 | 0.00 | 0.00 | 23 | 1009.1 |
| 20260504202514 | 69 | 360 | 10.0 | 15.0 | 0.00 | 0.00 | 0.00 | 21 | 1009.2 |
| 20260504202010 | 69 | 23 | 9.0 | 16.0 | 0.00 | 0.00 | 0.00 | 22 | 1009.1 |
| 20260504201532 | 69 | 15 | 6.0 | 22.0 | 0.00 | 0.00 | 0.00 | 22 | 1009.1 |
| 20260504201018 | 69 | 9 | 11.0 | 22.0 | 0.00 | 0.00 | 0.00 | 23 | 1009.1 |
| 20260504200513 | 69 | 42 | 7.0 | 15.0 | 0.00 | 0.00 | 0.00 | 23 | 1009.0 |
| 20260504200032 | 69 | 74 | 3.0 | 11.0 | 0.00 | 0.00 | 0.00 | 23 | 1009.1 |
| 20260504195513 | 68 | 360 | 5.0 | 10.0 | 0.00 | 0.00 | 0.00 | 23 | 1009.3 |
| 20260504195014 | 67 | 360 | 2.0 | 9.0 | 0.00 | 0.00 | 0.00 | 23 | 1009.4 |
| 20260504194533 | 66 | 360 | 3.0 | 18.0 | 0.00 | 0.00 | 0.00 | 24 | 1009.5 |
| 20260504194014 | 65 | 77 | 5.0 | 19.0 | 0.00 | 0.00 | 0.00 | 26 | 1009.6 |
| 20260504193514 | 64 | 59 | 10.0 | 19.0 | 0.00 | 0.00 | 0.00 | 26 | 1009.7 |
| 20260504193030 | 64 | 352 | 8.0 | 15.0 | 0.00 | 0.00 | 0.00 | 25 | 1009.9 |
| 20260504192511 | 64 | 261 | 9.0 | 21.0 | 0.00 | 0.00 | 0.00 | 25 | 1009.9 |
| 20260504192011 | 64 | 286 | 11.0 | 21.0 | 0.00 | 0.00 | 0.00 | 25 | 1009.7 |
| 20260504191530 | 64 | 281 | 8.0 | 24.0 | 0.00 | 0.00 | 0.00 | 24 | 1009.5 |
| 20260504191014 | 65 | 279 | 12.0 | 24.0 | 0.00 | 0.00 | 0.00 | 23 | 1009.3 |
| 20260504190514 | 65 | 294 | 13.0 | 22.0 | 0.00 | 0.00 | 0.00 | 22 | 1009.2 |
| 20260504190030 | 66 | 329 | 10.0 | 22.0 | 0.00 | 0.00 | 0.00 | 22 | 1009.2 |
| 20260504185511 | 66 | 360 | 9.0 | 22.0 | 0.00 | 0.00 | 0.00 | 22 | 1009.2 |
| 20260504185013 | 67 | 360 | 12.0 | 19.0 | 0.00 | 0.00 | 0.00 | 22 | 1009.3 |
| 20260504184533 | 67 | 30 | 10.0 | 14.0 | 0.00 | 0.00 | 0.00 | 22 | 1009.1 |
| 20260504184013 | 68 | 5 | 10.0 | 15.0 | 0.00 | 0.00 | 0.00 | 22 | 1009.2 |
| 20260504183515 | 68 | 322 | 11.0 | 15.0 | 0.00 | 0.00 | 0.00 | 22 | 1009.3 |
| 20260504183034 | 68 | 352 | 6.0 | 14.0 | 0.00 | 0.00 | 0.00 | 22 | 1009.3 |
| 20260504182523 | 68 | 352 | 5.0 | 9.0 | 0.00 | 0.00 | 0.00 | 22 | 1009.5 |
| 20260504182017 | 68 | 348 | 6.0 | 12.0 | 0.00 | 0.00 | 0.00 | 22 | 1009.4 |
| 20260504181528 | 68 | 306 | 6.0 | 12.0 | 0.00 | 0.00 | 0.00 | 21 | 1009.4 |
| 20260504181011 | 69 | 307 | 7.0 | 12.0 | 0.00 | 0.00 | 0.00 | 19 | 1009.6 |
| 20260504180514 | 69 | 9 | 2.0 | 11.0 | 0.00 | 0.00 | 0.00 | 21 | 1009.6 |
| 20260504180033 | 69 | 327 | 3.0 | 14.0 | 0.00 | 0.00 | 0.00 | 21 | 1009.6 |
| 20260504175513 | 69 | 20 | 6.0 | 14.0 | 0.00 | 0.00 | 0.00 | 21 | 1009.7 |
| 20260504175014 | 69 | 273 | 6.0 | 11.0 | 0.00 | 0.00 | 0.00 | 20 | 1009.8 |
| 20260504174532 | 69 | 252 | 6.0 | 11.0 | 0.00 | 0.00 | 0.00 | 22 | 1009.9 |
| 20260504174014 | 69 | 310 | 5.0 | 12.0 | 0.00 | 0.00 | 0.00 | 23 | 1010.0 |
| 20260504173513 | 68 | 240 | 5.0 | 14.0 | 0.00 | 0.00 | 0.00 | 22 | 1010.1 |
| 20260504173032 | 68 | 317 | 5.0 | 14.0 | 0.00 | 0.00 | 0.00 | 23 | 1010.1 |
| 20260504172513 | 68 | 336 | 7.0 | 12.0 | 0.00 | 0.00 | 0.00 | 21 | 1010.2 |
| 20260504172010 | 68 | 294 | 7.0 | 12.0 | 0.00 | 0.00 | 0.00 | 24 | 1010.2 |
| 20260504171532 | 67 | 311 | 9.0 | 12.0 | 0.00 | 0.00 | 0.00 | 23 | 1010.2 |
| 20260504171014 | 67 | 309 | 4.0 | 17.0 | 0.00 | 0.00 | 0.00 | 23 | 1010.2 |
| 20260504170511 | 67 | 314 | 10.0 | 17.0 | 0.00 | 0.00 | 0.00 | 24 | 1010.3 |
| 20260504151017 | 63 | 276 | 9.0 | 15.0 | 0.00 | 0.00 | 0.00 | 26 | 1010.9 |
| 20260504150516 | 62 | 276 | 9.0 | 15.0 | 0.00 | 0.00 | 0.00 | 28 | 1011.0 |
| 20260504141015 | 57 | 360 | 8.0 | 12.0 | 0.00 | 0.00 | 0.00 | 33 | 1010.8 |
| 20260504140520 | 57 | 360 | 7.0 | 14.0 | 0.00 | 0.00 | 0.00 | 33 | 1010.8 |
| 20260504130516 | 53 | 360 | 8.0 | 13.0 | 0.00 | 0.00 | 0.00 | 34 | 1010.6 |